createdAt,value
2019-02-08T00:00:24.958Z,64.40
2019-02-08T00:02:54.511Z,69.17
2019-02-08T00:05:23.361Z,60.53
2019-02-08T00:07:52.215Z,52.93
2019-02-08T00:10:21.491Z,56.23
2019-02-08T00:12:50.446Z,56.27
2019-02-08T00:15:21.633Z,58.63
2019-02-08T00:17:50.677Z,77.43
2019-02-08T00:20:20.514Z,88.53
2019-02-08T00:22:49.523Z,59.17
2019-02-08T00:25:22.714Z,55.63
2019-02-08T00:27:51.639Z,57.53
2019-02-08T00:30:25.625Z,61.50
2019-02-08T00:32:54.554Z,57.17
2019-02-08T00:35:23.849Z,60.03
2019-02-08T00:37:52.841Z,55.23
2019-02-08T00:40:22.748Z,62.33
2019-02-08T00:42:51.582Z,61.83
2019-02-08T00:45:21.478Z,53.47
2019-02-08T00:47:50.229Z,60.53
2019-02-08T00:50:26.624Z,56.07
2019-02-08T00:52:55.835Z,58.40
2019-02-08T00:55:25.232Z,53.93
2019-02-08T00:57:54.427Z,56.20
2019-02-08T01:00:23.823Z,57.90
2019-02-08T01:02:53.913Z,57.13
2019-02-08T01:05:25.198Z,61.17
2019-02-08T01:07:54.706Z,70.40
2019-02-08T01:10:26.397Z,67.00
2019-02-08T01:12:55.306Z,70.33
2019-02-08T01:15:25.637Z,60.43
2019-02-08T01:17:54.725Z,53.07
2019-02-08T01:20:25.040Z,55.80
2019-02-08T01:22:54.249Z,52.03
2019-02-08T01:25:27.982Z,57.60
2019-02-08T01:27:56.776Z,51.20
2019-02-08T01:30:35.651Z,56.83
2019-02-08T01:33:04.838Z,55.70
2019-02-08T01:35:33.555Z,55.00
2019-02-08T01:38:02.425Z,53.83
2019-02-08T01:40:36.794Z,49.97
2019-02-08T01:43:07.025Z,48.53
2019-02-08T01:45:35.837Z,46.03
2019-02-08T01:48:06.979Z,46.57
2019-02-08T01:50:35.763Z,44.23
2019-02-08T01:53:05.252Z,53.03
2019-02-08T01:55:34.098Z,53.80
2019-02-08T01:58:03.100Z,54.00
2019-02-08T02:00:34.800Z,47.03
2019-02-08T02:03:04.521Z,43.70
2019-02-08T02:05:33.327Z,44.87
2019-02-08T02:08:02.100Z,49.70
2019-02-08T02:10:36.327Z,51.20
2019-02-08T02:13:05.700Z,50.17
2019-02-08T02:15:34.820Z,53.53
2019-02-08T02:18:04.286Z,42.90
2019-02-08T02:20:38.162Z,39.07
2019-02-08T02:23:08.042Z,39.80
2019-02-08T02:25:36.902Z,36.10
2019-02-08T02:28:06.604Z,41.50
2019-02-08T02:30:36.711Z,43.07
2019-02-08T02:33:08.603Z,42.00
2019-02-08T02:35:37.424Z,40.97
2019-02-08T02:38:06.860Z,43.20
2019-02-08T02:40:35.725Z,45.30
2019-02-08T02:43:05.571Z,43.47
2019-02-08T02:45:37.533Z,38.57
2019-02-08T02:48:07.857Z,41.90
2019-02-08T02:50:36.759Z,40.57
2019-02-08T02:53:05.889Z,35.90
2019-02-08T02:55:34.704Z,44.10
2019-02-08T02:58:03.793Z,41.00
2019-02-08T03:00:35.532Z,41.47
2019-02-08T03:03:04.696Z,43.00
2019-02-08T03:05:33.583Z,39.50
2019-02-08T03:08:02.412Z,39.67
2019-02-08T03:10:31.258Z,37.20
2019-02-08T03:13:00.064Z,39.30
2019-02-08T03:15:28.816Z,37.67
2019-02-08T03:17:57.628Z,42.53
2019-02-08T03:20:26.399Z,38.27
2019-02-08T03:22:55.256Z,37.80
2019-02-08T03:25:25.961Z,39.50
2019-02-08T03:27:54.995Z,36.07
2019-02-08T03:30:30.927Z,34.70
2019-02-08T03:32:59.840Z,37.00
2019-02-08T03:35:29.130Z,34.73
2019-02-08T03:37:57.892Z,34.63
2019-02-08T03:40:28.859Z,37.47
2019-02-08T03:42:58.278Z,39.40
2019-02-08T03:45:40.928Z,37.23
2019-02-08T03:48:10.490Z,41.00
2019-02-08T03:50:39.567Z,42.23
2019-02-08T03:53:09.293Z,39.73
2019-02-08T03:55:39.133Z,40.43
2019-02-08T03:58:08.529Z,35.00
2019-02-08T04:00:45.515Z,39.70
2019-02-08T04:03:14.320Z,40.50
2019-02-08T04:05:43.258Z,41.07
2019-02-08T04:08:12.063Z,37.10
2019-02-08T04:10:40.861Z,40.60
2019-02-08T04:13:09.637Z,38.50
2019-02-08T04:15:38.652Z,39.07
2019-02-08T04:18:07.367Z,38.87
2019-02-08T04:20:36.141Z,38.70
2019-02-08T04:23:05.000Z,38.83
2019-02-08T04:25:33.922Z,41.97
2019-02-08T04:28:02.815Z,38.10
2019-02-08T04:30:32.743Z,38.33
2019-02-08T04:33:02.766Z,38.33
2019-02-08T04:35:31.384Z,38.57
2019-02-08T04:38:00.112Z,38.63
2019-02-08T04:40:28.968Z,43.93
2019-02-08T04:42:58.065Z,42.07
2019-02-08T04:45:26.980Z,46.87
2019-02-08T04:47:55.734Z,42.87
2019-02-08T04:50:28.292Z,39.33
2019-02-08T04:52:58.004Z,43.93
2019-02-08T04:55:27.145Z,48.00
2019-02-08T04:57:56.056Z,38.73
2019-02-08T05:00:30.121Z,45.07
2019-02-08T05:02:59.084Z,42.13
2019-02-08T05:05:27.914Z,43.63
2019-02-08T05:07:56.802Z,45.30
2019-02-08T05:10:27.704Z,44.33
2019-02-08T05:12:56.530Z,43.43
2019-02-08T05:15:25.972Z,42.80
2019-02-08T05:17:54.837Z,45.57
2019-02-08T05:20:26.274Z,49.23
2019-02-08T05:22:55.048Z,45.53
2019-02-08T05:25:23.936Z,46.07
2019-02-08T05:27:52.937Z,46.93
2019-02-08T05:30:24.941Z,47.27
2019-02-08T05:32:53.874Z,48.40
2019-02-08T05:35:22.734Z,48.23
2019-02-08T05:37:51.509Z,49.47
2019-02-08T05:40:21.659Z,46.03
2019-02-08T05:42:50.448Z,43.63
2019-02-08T05:45:22.005Z,50.00
2019-02-08T05:47:50.960Z,49.00
2019-02-08T05:50:25.728Z,44.50
2019-02-08T05:52:54.476Z,43.07
2019-02-08T05:55:25.755Z,50.90
2019-02-08T05:57:54.670Z,47.93
2019-02-08T06:00:30.510Z,55.47
2019-02-08T06:02:59.325Z,51.60
2019-02-08T06:05:28.104Z,55.90
2019-02-08T06:07:56.964Z,53.10
2019-02-08T06:10:25.819Z,45.33
2019-02-08T06:12:54.645Z,46.47
2019-02-08T06:15:24.728Z,44.43
2019-02-08T06:17:53.733Z,41.57
2019-02-08T06:20:24.135Z,46.73
2019-02-08T06:22:53.215Z,41.57
2019-02-08T06:25:24.283Z,42.57
2019-02-08T06:27:53.059Z,38.50
2019-02-08T06:30:24.008Z,38.90
2019-02-08T06:32:52.852Z,41.70
2019-02-08T06:35:23.570Z,40.23
2019-02-08T06:37:52.779Z,40.47
2019-02-08T06:40:24.676Z,45.87
2019-02-08T06:42:53.975Z,41.70
2019-02-08T06:45:27.067Z,45.57
2019-02-08T06:47:55.934Z,50.60
2019-02-08T06:50:26.562Z,46.00
2019-02-08T06:52:55.655Z,50.30
2019-02-08T06:55:25.744Z,48.80
2019-02-08T06:57:59.704Z,49.03
2019-02-08T07:00:36.224Z,50.03
2019-02-08T07:03:23.742Z,51.73
2019-02-08T07:06:06.074Z,44.17
2019-02-08T07:08:39.403Z,41.03
2019-02-08T07:11:12.549Z,44.73
2019-02-08T07:13:48.562Z,42.07
2019-02-08T07:16:37.469Z,39.10
2019-02-08T07:19:11.249Z,39.83
2019-02-08T07:21:44.638Z,39.83
2019-02-08T07:24:15.444Z,42.97
2019-02-08T07:26:46.050Z,57.47
2019-02-08T07:29:19.460Z,50.03
2019-02-08T07:32:04.832Z,69.17
2019-02-08T07:34:50.354Z,98.87
2019-02-08T07:37:39.406Z,141.07
2019-02-08T07:40:15.640Z,180.10
2019-02-08T07:42:46.779Z,103.13
2019-02-08T07:45:18.294Z,73.43
2019-02-08T07:48:01.261Z,112.53
2019-02-08T07:50:34.723Z,101.87
2019-02-08T07:53:23.756Z,81.07
2019-02-08T07:55:56.948Z,82.87
2019-02-08T07:58:39.831Z,64.27
2019-02-08T08:01:10.865Z,75.63
2019-02-08T08:03:41.431Z,70.17
2019-02-08T08:06:19.373Z,81.00
2019-02-08T08:08:52.688Z,84.37
2019-02-08T08:11:41.313Z,70.00
2019-02-08T08:14:19.103Z,59.40
2019-02-08T08:17:04.980Z,67.87
2019-02-08T08:19:48.356Z,67.57
2019-02-08T08:22:35.338Z,73.67
2019-02-08T08:25:20.325Z,53.67
2019-02-08T08:28:07.744Z,46.20
2019-02-08T08:30:38.618Z,43.77
2019-02-08T08:33:12.088Z,33.73
2019-02-08T08:35:56.035Z,34.33
2019-02-08T08:38:33.800Z,32.03
2019-02-08T08:41:32.965Z,29.47
2019-02-08T08:44:25.743Z,32.07
2019-02-08T08:47:18.483Z,32.00
2019-02-08T08:50:09.830Z,31.03
2019-02-08T08:52:53.382Z,149.97
2019-02-08T08:55:42.412Z,138.57
2019-02-08T08:58:39.392Z,99.60
2019-02-08T09:01:27.674Z,58.73
2019-02-08T09:04:22.349Z,37.27
2019-02-08T09:06:54.243Z,33.53
2019-02-08T09:09:51.836Z,34.23
2019-02-08T09:12:36.197Z,31.83
2019-02-08T09:15:13.842Z,28.87
2019-02-08T09:17:48.387Z,28.73
2019-02-08T09:20:39.136Z,27.20
2019-02-08T09:23:39.944Z,28.27
2019-02-08T09:26:22.150Z,46.30
2019-02-08T09:29:05.949Z,26.10
2019-02-08T09:31:46.829Z,65.37
2019-02-08T09:34:27.267Z,37.70
2019-02-08T09:37:29.534Z,26.77
2019-02-08T09:40:11.625Z,26.53
2019-02-08T09:42:58.359Z,26.40
2019-02-08T09:45:36.204Z,18.33
2019-02-08T09:48:23.237Z,20.17
2019-02-08T09:51:21.371Z,24.87
2019-02-08T09:54:03.397Z,21.53
2019-02-08T09:56:44.651Z,37.87
2019-02-08T09:59:48.931Z,42.20
2019-02-08T10:02:29.856Z,68.30
2019-02-08T10:05:24.180Z,32.43
2019-02-08T10:08:14.548Z,44.50
2019-02-08T10:11:03.245Z,54.07
2019-02-08T10:13:53.270Z,37.43
2019-02-08T10:16:41.510Z,32.30
2019-02-08T10:19:28.557Z,30.93
2019-02-08T10:22:34.245Z,28.90
2019-02-08T10:25:24.060Z,21.30
2019-02-08T10:28:17.180Z,90.57
2019-02-08T10:31:05.591Z,66.20
2019-02-08T10:33:57.071Z,25.17
2019-02-08T10:36:57.686Z,30.83
2019-02-08T10:39:54.618Z,21.47
2019-02-08T10:42:41.605Z,23.70
2019-02-08T10:45:19.227Z,19.93
2019-02-08T10:48:07.356Z,23.43
2019-02-08T10:51:12.490Z,23.97
2019-02-08T10:53:59.382Z,23.93
2019-02-08T10:56:57.039Z,19.70
2019-02-08T10:59:52.877Z,22.97
2019-02-08T11:02:33.550Z,24.63
2019-02-08T11:05:35.789Z,22.50
2019-02-08T11:08:23.875Z,24.40
2019-02-08T11:11:27.672Z,21.87
2019-02-08T11:14:05.355Z,20.17
2019-02-08T11:16:55.390Z,26.27
2019-02-08T11:19:23.006Z,22.50
2019-02-08T11:21:52.100Z,18.47
2019-02-08T11:24:21.883Z,20.53
2019-02-08T11:26:50.847Z,17.80
2019-02-08T11:29:19.672Z,19.60
2019-02-08T11:31:48.450Z,16.67
2019-02-08T11:34:17.287Z,17.60
2019-02-08T11:36:46.254Z,18.67
2019-02-08T11:39:16.760Z,16.03
2019-02-08T11:41:46.827Z,17.23
2019-02-08T11:44:16.067Z,21.67
2019-02-08T11:46:45.392Z,18.53
2019-02-08T11:49:14.242Z,22.87
2019-02-08T11:51:43.111Z,18.90
2019-02-08T11:54:12.331Z,18.13
2019-02-08T11:56:41.349Z,26.03
2019-02-08T11:59:10.209Z,23.17
2019-02-08T12:01:40.759Z,22.40
2019-02-08T12:04:09.995Z,19.73
2019-02-08T12:06:38.768Z,16.07
2019-02-08T12:09:13.013Z,19.93
2019-02-08T12:11:42.027Z,29.93
2019-02-08T12:14:11.076Z,32.50
2019-02-08T12:16:40.203Z,29.20
2019-02-08T12:19:09.017Z,22.30
2019-02-08T12:21:37.944Z,24.47
2019-02-08T12:24:07.204Z,25.17
2019-02-08T12:26:37.965Z,20.73
2019-02-08T12:29:07.012Z,21.90
2019-02-08T12:31:35.940Z,27.77
2019-02-08T12:34:05.247Z,28.77
2019-02-08T12:36:35.461Z,23.53
2019-02-08T12:39:06.217Z,25.47
2019-02-08T12:41:35.105Z,27.10
2019-02-08T12:44:04.221Z,27.13
2019-02-08T12:46:33.145Z,30.57
2019-02-08T12:49:14.175Z,30.30
2019-02-08T12:51:43.118Z,32.77
2019-02-08T12:54:11.958Z,35.00
2019-02-08T12:56:45.422Z,37.87
2019-02-08T12:59:11.297Z,38.43
2019-02-08T13:01:40.448Z,36.57
2019-02-08T13:04:09.333Z,55.40
2019-02-08T13:06:38.184Z,33.70
2019-02-08T13:09:09.765Z,95.40
2019-02-08T13:11:38.601Z,150.80
2019-02-08T13:14:08.818Z,69.30
2019-02-08T13:16:37.615Z,75.50
2019-02-08T13:19:06.398Z,52.40
2019-02-08T13:21:35.388Z,121.83
2019-02-08T13:24:05.034Z,63.37
2019-02-08T13:26:34.186Z,120.77
2019-02-08T13:29:03.057Z,80.57
2019-02-08T13:31:31.752Z,66.60
2019-02-08T13:34:00.516Z,49.70
2019-02-08T13:36:29.239Z,57.77
2019-02-08T13:38:57.949Z,75.27
2019-02-08T13:41:26.728Z,62.50
2019-02-08T13:43:55.611Z,47.40
2019-02-08T13:46:24.485Z,60.40
2019-02-08T13:48:53.282Z,36.83
2019-02-08T13:51:22.135Z,49.87
2019-02-08T13:53:50.968Z,30.10
2019-02-08T13:56:19.803Z,39.47
2019-02-08T13:58:48.541Z,38.40
2019-02-08T14:01:17.380Z,33.03
2019-02-08T14:03:46.162Z,30.23
2019-02-08T14:06:15.010Z,30.07
2019-02-08T14:08:43.793Z,29.23
2019-02-08T14:11:12.564Z,35.17
2019-02-08T14:13:41.271Z,31.80
2019-02-08T14:16:09.962Z,35.10
2019-02-08T14:18:38.875Z,26.90
2019-02-08T14:21:07.818Z,35.67
2019-02-08T14:23:36.522Z,32.13
2019-02-08T14:26:05.355Z,30.20
2019-02-08T14:28:34.279Z,26.97
2019-02-08T14:31:03.100Z,29.67
2019-02-08T14:33:31.951Z,26.77
2019-02-08T14:36:00.784Z,20.60
2019-02-08T14:38:29.583Z,27.50
2019-02-08T14:40:58.696Z,27.40
2019-02-08T14:43:27.518Z,27.53
2019-02-08T14:45:57.952Z,36.97
2019-02-08T14:48:26.740Z,34.60
2019-02-08T14:50:55.403Z,51.40
2019-02-08T14:53:24.176Z,42.87
2019-02-08T14:55:53.280Z,33.07
2019-02-08T14:58:22.174Z,31.10
2019-02-08T15:00:50.946Z,22.50
2019-02-08T15:03:19.782Z,25.73
2019-02-08T15:05:48.913Z,52.40
2019-02-08T15:08:17.552Z,44.53
2019-02-08T15:10:49.747Z,60.50
2019-02-08T15:13:18.736Z,30.20
2019-02-08T15:15:47.742Z,34.93
2019-02-08T15:18:16.640Z,38.30
2019-02-08T15:20:45.418Z,35.33
2019-02-08T15:23:14.330Z,35.70
2019-02-08T15:25:43.375Z,30.60
2019-02-08T15:28:12.280Z,33.70
2019-02-08T15:30:41.076Z,39.23
2019-02-08T15:33:09.885Z,27.53
2019-02-08T15:35:38.777Z,103.33
2019-02-08T15:38:07.639Z,54.30
2019-02-08T15:40:46.334Z,56.30
2019-02-08T15:43:17.892Z,67.17
2019-02-08T15:45:50.154Z,39.40
2019-02-08T15:48:19.073Z,123.40
2019-02-08T15:50:48.027Z,121.97
2019-02-08T15:53:16.762Z,78.10
2019-02-08T15:56:00.682Z,92.73
2019-02-08T15:58:29.550Z,113.67
2019-02-08T16:00:58.548Z,191.13
2019-02-08T16:03:27.400Z,300.97
2019-02-08T16:05:56.299Z,79.80
2019-02-08T16:08:25.012Z,76.70
2019-02-08T16:10:53.909Z,77.93
2019-02-08T16:13:23.117Z,134.07
2019-02-08T16:15:51.990Z,128.47
2019-02-08T16:18:21.045Z,57.17
2019-02-08T16:20:49.949Z,87.60
2019-02-08T16:23:18.682Z,105.47
2019-02-08T16:25:47.581Z,107.83
2019-02-08T16:28:16.305Z,124.60
2019-02-08T16:30:45.146Z,151.30
2019-02-08T16:33:13.894Z,305.37
2019-02-08T16:35:42.939Z,301.57
2019-02-08T16:38:11.704Z,276.00
2019-02-08T16:40:40.549Z,240.70
2019-02-08T16:43:09.354Z,284.47
2019-02-08T16:45:39.997Z,344.80
2019-02-08T16:48:12.798Z,224.73
2019-02-08T16:50:43.135Z,282.73
2019-02-08T16:53:12.575Z,257.13
2019-02-08T16:55:41.511Z,247.07
2019-02-08T16:58:11.265Z,142.87
2019-02-08T17:00:42.019Z,126.83
2019-02-08T17:03:14.050Z,126.90
2019-02-08T17:05:43.317Z,137.80
2019-02-08T17:08:12.247Z,207.57
2019-02-08T17:10:41.278Z,249.43
2019-02-08T17:13:10.393Z,321.77
2019-02-08T17:15:39.066Z,268.73
2019-02-08T17:18:08.783Z,199.73
2019-02-08T17:20:42.519Z,154.80
2019-02-08T17:23:11.384Z,220.63
2019-02-08T17:25:40.305Z,143.00
2019-02-08T17:28:09.801Z,117.13
2019-02-08T17:30:38.898Z,194.13
2019-02-08T17:33:09.087Z,180.47
2019-02-08T17:35:38.128Z,192.53
2019-02-08T17:38:07.382Z,175.27
2019-02-08T17:40:39.207Z,207.80
2019-02-08T17:43:08.208Z,123.47
2019-02-08T17:45:37.283Z,139.43
2019-02-08T17:48:09.571Z,144.33
2019-02-08T17:50:38.396Z,136.43
2019-02-08T17:53:07.279Z,130.70
2019-02-08T17:55:37.182Z,106.73
2019-02-08T17:58:05.972Z,100.23
2019-02-08T18:00:51.278Z,96.13
2019-02-08T18:03:20.142Z,104.20
2019-02-08T18:05:48.943Z,119.60
2019-02-08T18:08:18.199Z,150.10
2019-02-08T18:10:47.018Z,146.87
2019-02-08T18:13:16.912Z,159.53
2019-02-08T18:15:45.981Z,135.77
2019-02-08T18:18:16.835Z,98.27
2019-02-08T18:20:57.706Z,135.87
2019-02-08T18:23:26.733Z,184.20
2019-02-08T18:25:55.453Z,129.87
2019-02-08T18:28:24.403Z,158.93
2019-02-08T18:30:53.172Z,192.43
2019-02-08T18:33:22.853Z,233.83
2019-02-08T18:35:52.067Z,219.10
2019-02-08T18:38:22.267Z,222.53
2019-02-08T18:40:51.174Z,224.47
2019-02-08T18:43:21.702Z,237.50
2019-02-08T18:45:50.687Z,252.10
2019-02-08T18:48:19.529Z,428.40
2019-02-08T18:50:52.132Z,440.73
2019-02-08T18:53:20.895Z,508.93
2019-02-08T18:55:49.797Z,487.53
2019-02-08T18:58:19.558Z,479.63
2019-02-08T19:00:53.237Z,469.20
2019-02-08T19:03:23.460Z,387.73
2019-02-08T19:05:52.270Z,386.83
2019-02-08T19:08:21.086Z,578.03
2019-02-08T19:10:49.914Z,540.43
2019-02-08T19:13:18.671Z,512.27
2019-02-08T19:15:47.384Z,415.30
2019-02-08T19:18:16.445Z,309.67
2019-02-08T19:20:45.261Z,399.17
2019-02-08T19:23:14.068Z,428.00
2019-02-08T19:25:44.822Z,430.07
2019-02-08T19:28:14.733Z,423.07
2019-02-08T19:30:44.533Z,377.03
2019-02-08T19:33:13.668Z,411.77
2019-02-08T19:35:42.681Z,558.90
2019-02-08T19:38:11.674Z,553.87
2019-02-08T19:40:43.173Z,464.77
2019-02-08T19:43:13.616Z,365.77
2019-02-08T19:45:42.458Z,407.07
2019-02-08T19:48:11.824Z,314.93
2019-02-08T19:50:42.713Z,324.77
2019-02-08T19:53:11.464Z,300.63
2019-02-08T19:55:40.990Z,346.00
2019-02-08T19:58:10.603Z,300.70
2019-02-08T20:00:58.846Z,216.93
2019-02-08T20:03:27.581Z,193.17
2019-02-08T20:05:56.373Z,255.50
2019-02-08T20:08:25.273Z,299.30
2019-02-08T20:10:54.049Z,325.33
2019-02-08T20:13:22.750Z,344.23
2019-02-08T20:15:51.612Z,348.37
2019-02-08T20:18:20.468Z,248.67
2019-02-08T20:20:49.255Z,259.70
2019-02-08T20:23:18.512Z,309.70
2019-02-08T20:25:47.273Z,347.63
2019-02-08T20:28:16.041Z,401.80
2019-02-08T20:30:44.931Z,397.37
2019-02-08T20:33:14.162Z,287.70
2019-02-08T20:35:42.862Z,254.80
2019-02-08T20:38:11.771Z,211.30
2019-02-08T20:40:48.786Z,247.70
2019-02-08T20:43:17.713Z,281.60
2019-02-08T20:45:46.806Z,273.33
2019-02-08T20:48:17.874Z,320.50
2019-02-08T20:50:46.852Z,242.27
2019-02-08T20:53:15.813Z,197.67
2019-02-08T20:55:44.812Z,146.73
2019-02-08T20:58:13.816Z,135.63
2019-02-08T21:00:45.564Z,138.63
2019-02-08T21:03:14.971Z,177.07
2019-02-08T21:05:44.529Z,189.53
2019-02-08T21:08:14.287Z,219.27
2019-02-08T21:10:43.497Z,159.73
2019-02-08T21:13:13.057Z,160.33
2019-02-08T21:15:41.774Z,198.93
2019-02-08T21:18:10.857Z,182.83
2019-02-08T21:20:40.190Z,125.73
2019-02-08T21:23:09.827Z,104.63
2019-02-08T21:25:41.081Z,110.63
2019-02-08T21:28:10.132Z,125.43
2019-02-08T21:30:39.282Z,137.23
2019-02-08T21:33:10.408Z,119.37
2019-02-08T21:35:39.595Z,130.10
2019-02-08T21:38:09.746Z,111.77
2019-02-08T21:40:39.116Z,101.60
2019-02-08T21:43:08.136Z,105.93
2019-02-08T21:45:41.838Z,97.10
2019-02-08T21:48:11.857Z,101.43
2019-02-08T21:50:40.802Z,91.57
2019-02-08T21:53:09.675Z,116.97
2019-02-08T21:55:38.440Z,116.83
2019-02-08T21:58:07.210Z,142.43
2019-02-08T22:00:41.574Z,122.23
2019-02-08T22:03:10.846Z,92.67
2019-02-08T22:05:48.261Z,90.77
2019-02-08T22:08:16.961Z,88.60
2019-02-08T22:10:45.890Z,91.17
2019-02-08T22:13:14.703Z,108.77
2019-02-08T22:15:45.238Z,118.73
2019-02-08T22:18:14.076Z,107.93
2019-02-08T22:20:43.619Z,95.23
2019-02-08T22:23:12.857Z,109.60
2019-02-08T22:25:41.719Z,103.97
2019-02-08T22:28:10.870Z,97.40
2019-02-08T22:30:40.138Z,100.57
2019-02-08T22:33:12.216Z,122.10
2019-02-08T22:35:41.180Z,112.80
2019-02-08T22:38:10.362Z,191.20
2019-02-08T22:40:39.198Z,247.53
2019-02-08T22:43:08.124Z,153.53
2019-02-08T22:45:38.903Z,193.70
2019-02-08T22:48:08.098Z,214.63
2019-02-08T22:50:36.930Z,207.90
2019-02-08T22:53:07.575Z,197.57
2019-02-08T22:55:36.828Z,161.27
2019-02-08T22:58:07.991Z,186.50
2019-02-08T23:00:43.497Z,105.60
2019-02-08T23:03:14.270Z,221.40
2019-02-08T23:05:45.797Z,290.90
2019-02-08T23:08:14.046Z,182.23
2019-02-08T23:10:42.802Z,225.53
2019-02-08T23:13:12.418Z,247.27
2019-02-08T23:15:41.380Z,227.57
2019-02-08T23:18:11.242Z,158.63
2019-02-08T23:20:39.965Z,143.70
2019-02-08T23:23:09.008Z,202.50
2019-02-08T23:25:37.806Z,115.30
2019-02-08T23:28:07.194Z,178.00
2019-02-08T23:30:36.471Z,196.50
2019-02-08T23:33:05.867Z,195.53
2019-02-08T23:35:41.853Z,200.53
2019-02-08T23:38:05.280Z,176.23
2019-02-08T23:40:34.047Z,188.80
2019-02-08T23:43:02.746Z,127.90
2019-02-08T23:45:31.531Z,108.40
2019-02-08T23:48:00.383Z,135.07
2019-02-08T23:50:29.202Z,135.57
2019-02-08T23:52:57.914Z,124.30
2019-02-08T23:55:27.975Z,126.37
2019-02-08T23:57:56.767Z,137.30
